Tropic Jade — J8NY — position and weather

sailwx.info

Track history (hours):
 
Tides and Currents Weather Stations Pressure Air Temp Water Temp Dewpoint Dewpoint Depression Visibility Wind Speed Wind Dir Waves Ship Positions

Tropic Jade

Last reported at 2017-Dec-11 10:00 UTC. Time now 2017-Dec-12 08:33 UTC.
Position N 26°24' W 078°48'.

Type: Cargo ship. MMSI: 377907000.

Wind from 310 at 18 knots

Barometer 1022.5 mb
Air temperature 18.0 ° C
Visibility: greater than 5.4 NM
Dewpoint 13.1 ° C
Water temperature 25.0 ° C

Date/timePositionNaut miles runAvg speedWind from/ knotsBaromVisibWave heightAir tempDewpointWater temp
2017-Dec-11 10:00N 26°24' W 078°48'2211.2 310 / 181022.5 5.4 18.013.125.0
2017-Dec-11 08:00N 26°30' W 079°12'1212.3 310 / 141022.510.8 19.014.223.0
2017-Dec-11 07:00N 26°36' W 079°24'1717.2 310 / 131023.010.8 16.012.723.0
2017-Dec-11 06:00N 26°42' W 079°42'312.8 320 / 141023.510.8 16.012.722.0
2017-Dec-11 05:47N 26°43' W 079°45'311.6
2017-Dec-11 05:31N 26°43' W 079°48'612.0
2017-Dec-11 05:00N 26°44' W 079°55'611.7
2017-Dec-11 04:30N 26°45' W 080°02'0 0.1
2017-Dec-11 04:00N 26°45' W 080°01'0 0.0
2017-Dec-11 03:30N 26°45' W 080°01'0 0.0
2017-Dec-11 03:00N 26°45' W 080°01'0 0.0
2017-Dec-11 02:30N 26°45' W 080°01'0 0.0
2017-Dec-11 02:00N 26°45' W 080°01'0 0.0
2017-Dec-11 01:30N 26°45' W 080°01'0 0.0
2017-Dec-11 01:00N 26°45' W 080°01'0 0.0
2017-Dec-11 00:30N 26°45' W 080°01'0 0.0
2017-Dec-10 22:45N 26°45' W 080°01'0 0.0
2017-Dec-10 22:30N 26°45' W 080°01'0 0.1
2017-Dec-10 22:00N 26°45' W 080°02'2 4.3
2017-Dec-10 21:31N 26°46' W 080°03'0 0.0
2017-Dec-10 20:58N 26°46' W 080°03'0 0.0
2017-Dec-10 20:28N 26°46' W 080°03'0 0.0
2017-Dec-10 19:58N 26°46' W 080°03'0 0.0
2017-Dec-10 19:28N 26°46' W 080°03'0 0.0
2017-Dec-10 18:58N 26°46' W 080°03'0 0.0
2017-Dec-10 18:28N 26°46' W 080°03'0 0.0
2017-Dec-10 17:58N 26°46' W 080°03'0 0.0
2017-Dec-10 17:28N 26°46' W 080°03'0 0.0
2017-Dec-10 16:58N 26°46' W 080°03'0 0.0
2017-Dec-10 16:28N 26°46' W 080°03'0 0.0
2017-Dec-10 15:58N 26°46' W 080°03'0 0.0
2017-Dec-10 14:49N 26°46' W 080°03'0 0.2
2017-Dec-10 13:42N 26°46' W 080°03'1 6.0
2017-Dec-10 13:30N 26°46' W 080°02'2 3.8
2017-Dec-10 13:00N 26°44' W 080°01'0 0.0
2017-Dec-10 12:29N 26°44' W 080°01'0 0.0
2017-Dec-10 11:59N 26°44' W 080°01'0 0.0
2017-Dec-10 11:29N 26°44' W 080°01'0 0.0
2017-Dec-10 10:59N 26°44' W 080°01'0 0.0
2017-Dec-10 10:29N 26°44' W 080°01'0 0.0
2017-Dec-10 09:59N 26°44' W 080°01'0 0.0
2017-Dec-10 09:29N 26°44' W 080°01'0 0.0
2017-Dec-10 08:59N 26°44' W 080°01'0 0.0
2017-Dec-10 08:29N 26°44' W 080°01'0 0.0
2017-Dec-10 07:59N 26°44' W 080°01'0 0.0
2017-Dec-10 07:29N 26°44' W 080°01'0 0.0
2017-Dec-10 06:59N 26°44' W 080°01'0 0.0
2017-Dec-10 06:29N 26°44' W 080°01'0 0.0
2017-Dec-10 05:56N 26°44' W 080°01'0 0.0
2017-Dec-10 05:29N 26°44' W 080°01'0 0.0
2017-Dec-10 04:59N 26°44' W 080°01'0 0.0
2017-Dec-10 04:29N 26°44' W 080°01'0 0.0
2017-Dec-10 03:56N 26°44' W 080°01'0 0.0
2017-Dec-10 03:29N 26°44' W 080°01'0 0.0
2017-Dec-10 02:59N 26°44' W 080°02'0 0.0
2017-Dec-10 02:29N 26°44' W 080°02'0 0.1
2017-Dec-10 01:59N 26°44' W 080°02'0 0.0
2017-Dec-10 01:26N 26°44' W 080°02'0 0.1
2017-Dec-10 00:59N 26°44' W 080°02'0 0.1
2017-Dec-10 00:29N 26°44' W 080°02'0 0.0
2017-Dec-09 23:59N 26°44' W 080°02'0 0.0
2017-Dec-09 23:29N 26°44' W 080°02'0 0.0
2017-Dec-09 22:59N 26°44' W 080°02'0 0.1
2017-Dec-09 22:29N 26°44' W 080°02'4 7.6
2017-Dec-09 22:01N 26°43' W 079°58'713.0
2017-Dec-09 21:30N 26°41' W 079°51'918.3
2017-Dec-09 21:00N 26°36' W 079°42'1212.3 310 / 251014.5 5.4 18.014.825.0
2017-Dec-09 20:00N 26°30' W 079°30'1110.7 310 / 181013.5 5.4 20.016.923.0
2017-Dec-09 19:00N 26°30' W 079°18'1212.3 310 / 181012.5 5.4 20.016.923.0
2017-Dec-09 18:00N 26°24' W 079°06'8 1.0 300 / 201012.0 2.2 20.018.523.0
2017-Dec-09 10:00N 26°30' W 079°00'2211.1 220 / 231010.5 5.4 25.023.627.0
2017-Dec-09 08:00N 26°36' W 079°24'1616.1 210 / 151010.510.8 26.023.224.0
2017-Dec-09 07:00N 26°36' W 079°42'713.7 200 / 161010.5 5.4 26.023.224.0
2017-Dec-09 06:28N 26°40' W 079°49'511.4
2017-Dec-09 06:01N 26°43' W 079°54'713.0
2017-Dec-09 05:31N 26°45' W 080°00'3 5.2
2017-Dec-09 05:01N 26°46' W 080°03'0 0.0
2017-Dec-09 04:28N 26°46' W 080°03'0 0.0
2017-Dec-09 03:58N 26°46' W 080°03'0 0.0
2017-Dec-09 03:28N 26°46' W 080°03'0 0.0
2017-Dec-09 02:58N 26°46' W 080°03'0 0.0
2017-Dec-09 02:28N 26°46' W 080°03'0 0.0
2017-Dec-09 01:58N 26°46' W 080°03'0 0.0
2017-Dec-09 01:28N 26°46' W 080°03'0 0.0
2017-Dec-09 00:58N 26°46' W 080°03'0 0.0
2017-Dec-09 00:28N 26°46' W 080°03'0 0.0
2017-Dec-08 23:58N 26°46' W 080°03'0 0.0
2017-Dec-08 23:28N 26°46' W 080°03'0 0.0
2017-Dec-08 22:59N 26°46' W 080°03'2 4.2
2017-Dec-08 22:30N 26°46' W 080°01'4 8.3
2017-Dec-08 22:00N 26°44' W 079°57'713.8
2017-Dec-08 21:31N 26°41' W 079°50'1325.8
2017-Dec-08 21:00N 26°36' W 079°36'3310.9 200 / 121011.0 5.4 27.022.825.0
2017-Dec-08 18:00N 26°30' W 079°00'39 4.1 170 / 131012.5 5.4 27.024.325.0
2017-Dec-08 08:34N 26°41' W 079°42'112.1
2017-Dec-08 08:29N 26°41' W 079°43'611.7
2017-Dec-08 08:00N 26°42' W 079°49'1189.1
2017-Dec-08 08:00N 26°42' W 079°48'714.3 140 / 121013.0 5.4 25.022.224.0
2017-Dec-08 07:30N 26°44' W 079°55'5 9.9
2017-Dec-08 07:00N 26°46' W 080°01'2 4.7
2017-Dec-08 06:30N 26°46' W 080°03'0 0.0
2017-Dec-08 05:58N 26°46' W 080°03'0 0.0
2017-Dec-08 05:28N 26°46' W 080°03'0 0.0
2017-Dec-08 04:58N 26°46' W 080°03'0 0.0
2017-Dec-08 04:28N 26°46' W 080°03'0 0.0
2017-Dec-08 03:58N 26°46' W 080°03'0 0.0
2017-Dec-08 03:28N 26°46' W 080°03'0 0.0
2017-Dec-08 02:58N 26°46' W 080°03'0 0.0
2017-Dec-08 02:28N 26°46' W 080°03'0 0.0
2017-Dec-08 01:58N 26°46' W 080°03'0 0.0
2017-Dec-08 01:25N 26°46' W 080°03'0 0.0
2017-Dec-08 00:58N 26°46' W 080°03'0 0.0
2017-Dec-08 00:28N 26°46' W 080°03'0 0.0
2017-Dec-07 23:52N 26°46' W 080°03'0 0.0
2017-Dec-07 23:28N 26°46' W 080°03'0 0.0
2017-Dec-07 22:55N 26°46' W 080°03'0 0.0
2017-Dec-07 22:28N 26°46' W 080°03'0 0.1
2017-Dec-07 22:00N 26°46' W 080°03'4 7.5
2017-Dec-07 21:30N 26°45' W 079°59'2314.9
2017-Dec-07 20:00N 26°36' W 079°36'1616.1 170 / 91014.510.8 26.023.224.0
2017-Dec-07 19:00N 26°36' W 079°18'1110.7 140 / 61016.010.8 26.021.824.0
2017-Dec-07 18:00N 26°36' W 079°06'1212.3 140 / 81016.010.8 26.021.824.0
2017-Dec-07 17:00N 26°30' W 078°54'5 0.8 130 / 81016.010.8 26.021.824.0
2017-Dec-07 10:00N 26°30' W 079°00'2713.7 130 / 151016.5 5.4 24.021.127.0
2017-Dec-07 08:00N 26°36' W 079°30'1313.6 140 / 91017.010.8 24.021.124.0
2017-Dec-07 07:01N 26°41' W 079°44'5184.6
2017-Dec-07 07:00N 26°36' W 079°42'825.4 130 / 91017.0 5.4 24.021.124.0
2017-Dec-07 06:40N 26°42' W 079°48'211.6
2017-Dec-07 06:29N 26°43' W 079°50'611.5
2017-Dec-07 06:00N 26°44' W 079°56'510.7
2017-Dec-07 05:30N 26°46' W 080°02'1 2.3
2017-Dec-07 05:00N 26°46' W 080°03'0 0.0
2017-Dec-07 04:28N 26°46' W 080°03'0 0.0
2017-Dec-07 03:58N 26°46' W 080°03'0 0.0
2017-Dec-07 03:28N 26°46' W 080°03'0 0.0
2017-Dec-07 03:01N 26°46' W 080°03'0 0.0
2017-Dec-07 02:30N 26°46' W 080°03'0 0.0
2017-Dec-07 02:00N 26°46' W 080°03'0 0.0
2017-Dec-07 01:30N 26°46' W 080°03'0 0.0
2017-Dec-07 01:00N 26°46' W 080°03'0 0.0
2017-Dec-07 00:30N 26°46' W 080°03'0 0.0
2017-Dec-07 00:00N 26°46' W 080°03'0 0.0
2017-Dec-06 23:30N 26°46' W 080°03'0 0.0
2017-Dec-06 23:00N 26°46' W 080°03'0 0.0
2017-Dec-06 22:30N 26°46' W 080°03'2 3.4
2017-Dec-06 22:00N 26°46' W 080°01'510.5
2017-Dec-06 21:30N 26°44' W 079°56'713.4
2017-Dec-06 21:01N 26°41' W 079°49'1817.5
2017-Dec-06 20:00N 26°36' W 079°30'1212.3 170 / 111017.510.8 25.020.724.0
2017-Dec-06 19:00N 26°30' W 079°18'1110.7 170 / 111018.510.8 26.018.724.0
2017-Dec-06 18:00N 26°30' W 079°06'0 0.0 160 / 111018.510.8 26.021.824.0
2017-Dec-06 11:00N 26°30' W 079°06'1212.3 110 / 171019.0 5.4 24.019.627.0
2017-Dec-06 10:00N 26°36' W 079°18'2211.1 110 / 171019.0 5.4 24.019.627.0
2017-Dec-06 08:00N 26°42' W 079°42'16 1.3 120 / 101019.0 5.4 24.019.624.0
2017-Dec-05 20:00N 26°30' W 079°30'1616.1 130 / 101020.510.8 26.021.824.0
2017-Dec-05 19:00N 26°30' W 079°12'1212.3 130 / 111021.010.8 26.021.824.0
2017-Dec-05 18:00N 26°24' W 079°00'13 1.6 120 / 121021.010.8 26.021.824.0
2017-Dec-05 10:00N 26°36' W 079°06'2110.7 090 / 181021.0 5.4 24.019.627.0
2017-Dec-05 08:00N 26°36' W 079°30'1212.3 100 / 121020.510.8 24.019.624.0
2017-Dec-05 07:00N 26°42' W 079°42'19 0.9 100 / 121020.510.8 24.019.624.0
2017-Dec-04 10:24N 26°46' W 080°03'0 0.0
2017-Dec-04 10:00N 26°46' W 080°03'0 0.0
2017-Dec-04 09:30N 26°46' W 080°03'0 0.0
2017-Dec-04 08:57N 26°46' W 080°03'0 0.0
2017-Dec-04 08:30N 26°46' W 080°03'0 0.0
2017-Dec-04 08:00N 26°46' W 080°03'0 0.0
2017-Dec-04 07:30N 26°46' W 080°03'0 0.0
2017-Dec-04 07:00N 26°46' W 080°03'0 0.0
2017-Dec-04 06:30N 26°46' W 080°03'0 0.0
2017-Dec-04 06:00N 26°46' W 080°03'0 0.0
2017-Dec-04 05:30N 26°46' W 080°03'0 0.0
2017-Dec-04 05:00N 26°46' W 080°03'0 0.0
2017-Dec-04 04:30N 26°46' W 080°03'0 0.0
2017-Dec-04 04:00N 26°46' W 080°03'0 0.0
2017-Dec-04 03:30N 26°46' W 080°03'0 0.0
2017-Dec-04 03:00N 26°46' W 080°03'0 0.0
2017-Dec-04 02:29N 26°46' W 080°03'0 0.0
2017-Dec-04 01:59N 26°46' W 080°03'0 0.0
2017-Dec-04 01:29N 26°46' W 080°03'0 0.0
2017-Dec-04 00:59N 26°46' W 080°03'0 0.0
2017-Dec-04 00:29N 26°46' W 080°03'0 0.0
2017-Dec-03 13:47N 26°46' W 080°03'0 0.0
2017-Dec-03 13:29N 26°46' W 080°03'0 0.0
2017-Dec-03 12:59N 26°46' W 080°03'0 0.0
2017-Dec-03 12:29N 26°46' W 080°03'0 0.0
2017-Dec-03 11:59N 26°46' W 080°03'0 0.0
2017-Dec-03 11:26N 26°46' W 080°03'0 0.0
2017-Dec-03 10:59N 26°46' W 080°03'0 0.0
2017-Dec-03 10:29N 26°46' W 080°03'0 0.0
2017-Dec-03 09:59N 26°46' W 080°03'0 0.0
2017-Dec-03 09:29N 26°46' W 080°03'0 0.0
2017-Dec-03 08:59N 26°46' W 080°03'0 0.0
2017-Dec-03 08:29N 26°46' W 080°03'0 0.0
2017-Dec-03 07:59N 26°46' W 080°03'0 0.0
2017-Dec-03 07:29N 26°46' W 080°03'0 0.0
2017-Dec-03 06:59N 26°46' W 080°03'0 0.0
2017-Dec-03 06:29N 26°46' W 080°03'0 0.0
2017-Dec-03 05:59N 26°46' W 080°03'0 0.0
2017-Dec-03 05:29N 26°46' W 080°03'0 0.0
2017-Dec-03 04:59N 26°46' W 080°03'0 0.0
2017-Dec-03 04:29N 26°46' W 080°03'0 0.0
2017-Dec-03 03:59N 26°46' W 080°03'0 0.0
2017-Dec-02 22:16N 26°46' W 080°03'1 3.7
2017-Dec-02 22:00N 26°46' W 080°02'510.9
2017-Dec-02 21:30N 26°47' W 079°56'714.0
2017-Dec-02 21:01N 26°44' W 079°49'1918.3
2017-Dec-02 20:00N 26°36' W 079°30'1110.7 060 / 111019.010.8 24.018.024.0
2017-Dec-02 19:00N 26°36' W 079°18'1717.2 050 / 121019.010.8 24.018.024.0
2017-Dec-02 18:00N 26°30' W 079°00'0 0.0 050 / 121019.010.8 24.018.024.0
2017-Dec-02 10:00N 26°30' W 079°00'2713.7 040 / 151018.0 5.4 22.019.027.0
2017-Dec-02 08:00N 26°36' W 079°30'1212.3 050 / 101018.510.8 24.018.024.0
2017-Dec-02 07:00N 26°42' W 079°42'518.0 050 / 111018.5 5.4 24.018.024.0
2017-Dec-02 06:42N 26°44' W 079°47'211.4
2017-Dec-02 06:30N 26°44' W 079°50'611.3
2017-Dec-02 06:00N 26°46' W 079°56'510.7
2017-Dec-02 05:30N 26°46' W 080°02'1 2.1
2017-Dec-02 05:00N 26°46' W 080°03'0 0.0
2017-Dec-02 04:30N 26°46' W 080°03'0 0.0
2017-Dec-02 04:00N 26°46' W 080°03'0 0.0
2017-Dec-02 03:30N 26°46' W 080°03'0 0.0
2017-Dec-02 03:00N 26°46' W 080°03'0 0.0
2017-Dec-02 02:30N 26°46' W 080°03'0 0.0
2017-Dec-02 02:00N 26°46' W 080°03'0 0.0
2017-Dec-02 01:30N 26°46' W 080°03'0 0.0
2017-Dec-02 00:57N 26°46' W 080°03'0 0.0
2017-Dec-02 00:30N 26°46' W 080°03'0 0.0
2017-Dec-02 00:00N 26°46' W 080°03'0 0.0
2017-Dec-01 23:30N 26°46' W 080°03'0 0.0
2017-Dec-01 23:00N 26°46' W 080°03'0 0.3
2017-Dec-01 22:30N 26°46' W 080°03'1 2.0
2017-Dec-01 22:00N 26°46' W 080°02'4 8.7
2017-Dec-01 21:30N 26°47' W 079°57'1912.7
2017-Dec-01 20:00N 26°42' W 079°36'1616.1 050 / 131017.010.8 24.019.624.0
2017-Dec-01 19:00N 26°42' W 079°18'16 2.0 050 / 121018.010.8 24.019.624.0
2017-Dec-01 11:00N 26°30' W 079°06'1212.3 040 / 151016.5 5.4 23.020.128.0
2017-Dec-01 10:00N 26°36' W 079°18'   040 / 151016.5 5.4 23.020.128.0
Track history (hours):
 
Tides and Currents Weather Stations Pressure Air Temp Water Temp Dewpoint Dewpoint Depression Visibility Wind Speed Wind Dir Waves Ship Positions

Tropic Jade

Last reported at 2017-Dec-11 10:00 UTC. Time now 2017-Dec-12 08:33 UTC.
Position N 26°24' W 078°48'.

Type: Cargo ship. MMSI: 377907000.

Wind from 310 at 18 knots

Barometer 1022.5 mb
Air temperature 18.0 ° C
Visibility: greater than 5.4 NM
Dewpoint 13.1 ° C
Water temperature 25.0 ° C

Date/timePositionNaut miles runAvg speedWind from/ knotsBaromVisibWave heightAir tempDewpointWater temp
2017-Dec-11 10:00N 26°24' W 078°48'2211.2 310 / 181022.5 5.4 18.013.125.0
2017-Dec-11 08:00N 26°30' W 079°12'1212.3 310 / 141022.510.8 19.014.223.0
2017-Dec-11 07:00N 26°36' W 079°24'1717.2 310 / 131023.010.8 16.012.723.0
2017-Dec-11 06:00N 26°42' W 079°42'312.8 320 / 141023.510.8 16.012.722.0
2017-Dec-11 05:47N 26°43' W 079°45'311.6
2017-Dec-11 05:31N 26°43' W 079°48'612.0
2017-Dec-11 05:00N 26°44' W 079°55'611.7
2017-Dec-11 04:30N 26°45' W 080°02'0 0.1
2017-Dec-11 04:00N 26°45' W 080°01'0 0.0
2017-Dec-11 03:30N 26°45' W 080°01'0 0.0
2017-Dec-11 03:00N 26°45' W 080°01'0 0.0
2017-Dec-11 02:30N 26°45' W 080°01'0 0.0
2017-Dec-11 02:00N 26°45' W 080°01'0 0.0
2017-Dec-11 01:30N 26°45' W 080°01'0 0.0
2017-Dec-11 01:00N 26°45' W 080°01'0 0.0
2017-Dec-11 00:30N 26°45' W 080°01'0 0.0
2017-Dec-10 22:45N 26°45' W 080°01'0 0.0
2017-Dec-10 22:30N 26°45' W 080°01'0 0.1
2017-Dec-10 22:00N 26°45' W 080°02'2 4.3
2017-Dec-10 21:31N 26°46' W 080°03'0 0.0
2017-Dec-10 20:58N 26°46' W 080°03'0 0.0
2017-Dec-10 20:28N 26°46' W 080°03'0 0.0
2017-Dec-10 19:58N 26°46' W 080°03'0 0.0
2017-Dec-10 19:28N 26°46' W 080°03'0 0.0
2017-Dec-10 18:58N 26°46' W 080°03'0 0.0
2017-Dec-10 18:28N 26°46' W 080°03'0 0.0
2017-Dec-10 17:58N 26°46' W 080°03'0 0.0
2017-Dec-10 17:28N 26°46' W 080°03'0 0.0
2017-Dec-10 16:58N 26°46' W 080°03'0 0.0
2017-Dec-10 16:28N 26°46' W 080°03'0 0.0
2017-Dec-10 15:58N 26°46' W 080°03'0 0.0
2017-Dec-10 14:49N 26°46' W 080°03'0 0.2
2017-Dec-10 13:42N 26°46' W 080°03'1 6.0
2017-Dec-10 13:30N 26°46' W 080°02'2 3.8
2017-Dec-10 13:00N 26°44' W 080°01'0 0.0
2017-Dec-10 12:29N 26°44' W 080°01'0 0.0
2017-Dec-10 11:59N 26°44' W 080°01'0 0.0
2017-Dec-10 11:29N 26°44' W 080°01'0 0.0
2017-Dec-10 10:59N 26°44' W 080°01'0 0.0
2017-Dec-10 10:29N 26°44' W 080°01'0 0.0
2017-Dec-10 09:59N 26°44' W 080°01'0 0.0
2017-Dec-10 09:29N 26°44' W 080°01'0 0.0
2017-Dec-10 08:59N 26°44' W 080°01'0 0.0
2017-Dec-10 08:29N 26°44' W 080°01'0 0.0
2017-Dec-10 07:59N 26°44' W 080°01'0 0.0
2017-Dec-10 07:29N 26°44' W 080°01'0 0.0
2017-Dec-10 06:59N 26°44' W 080°01'0 0.0
2017-Dec-10 06:29N 26°44' W 080°01'0 0.0
2017-Dec-10 05:56N 26°44' W 080°01'0 0.0
2017-Dec-10 05:29N 26°44' W 080°01'0 0.0
2017-Dec-10 04:59N 26°44' W 080°01'0 0.0
2017-Dec-10 04:29N 26°44' W 080°01'0 0.0
2017-Dec-10 03:56N 26°44' W 080°01'0 0.0
2017-Dec-10 03:29N 26°44' W 080°01'0 0.0
2017-Dec-10 02:59N 26°44' W 080°02'0 0.0
2017-Dec-10 02:29N 26°44' W 080°02'0 0.1
2017-Dec-10 01:59N 26°44' W 080°02'0 0.0
2017-Dec-10 01:26N 26°44' W 080°02'0 0.1
2017-Dec-10 00:59N 26°44' W 080°02'0 0.1
2017-Dec-10 00:29N 26°44' W 080°02'0 0.0
2017-Dec-09 23:59N 26°44' W 080°02'0 0.0
2017-Dec-09 23:29N 26°44' W 080°02'0 0.0
2017-Dec-09 22:59N 26°44' W 080°02'0 0.1
2017-Dec-09 22:29N 26°44' W 080°02'4 7.6
2017-Dec-09 22:01N 26°43' W 079°58'713.0
2017-Dec-09 21:30N 26°41' W 079°51'918.3
2017-Dec-09 21:00N 26°36' W 079°42'1212.3 310 / 251014.5 5.4 18.014.825.0
2017-Dec-09 20:00N 26°30' W 079°30'1110.7 310 / 181013.5 5.4 20.016.923.0
2017-Dec-09 19:00N 26°30' W 079°18'1212.3 310 / 181012.5 5.4 20.016.923.0
2017-Dec-09 18:00N 26°24' W 079°06'8 1.0 300 / 201012.0 2.2 20.018.523.0
2017-Dec-09 10:00N 26°30' W 079°00'2211.1 220 / 231010.5 5.4 25.023.627.0
2017-Dec-09 08:00N 26°36' W 079°24'1616.1 210 / 151010.510.8 26.023.224.0
2017-Dec-09 07:00N 26°36' W 079°42'713.7 200 / 161010.5 5.4 26.023.224.0
2017-Dec-09 06:28N 26°40' W 079°49'511.4
2017-Dec-09 06:01N 26°43' W 079°54'713.0
2017-Dec-09 05:31N 26°45' W 080°00'3 5.2
2017-Dec-09 05:01N 26°46' W 080°03'0 0.0
2017-Dec-09 04:28N 26°46' W 080°03'0 0.0
2017-Dec-09 03:58N 26°46' W 080°03'0 0.0
2017-Dec-09 03:28N 26°46' W 080°03'0 0.0
2017-Dec-09 02:58N 26°46' W 080°03'0 0.0
2017-Dec-09 02:28N 26°46' W 080°03'0 0.0
2017-Dec-09 01:58N 26°46' W 080°03'0 0.0
2017-Dec-09 01:28N 26°46' W 080°03'0 0.0
2017-Dec-09 00:58N 26°46' W 080°03'0 0.0
2017-Dec-09 00:28N 26°46' W 080°03'0 0.0
2017-Dec-08 23:58N 26°46' W 080°03'0 0.0
2017-Dec-08 23:28N 26°46' W 080°03'0 0.0
2017-Dec-08 22:59N 26°46' W 080°03'2 4.2
2017-Dec-08 22:30N 26°46' W 080°01'4 8.3
2017-Dec-08 22:00N 26°44' W 079°57'713.8
2017-Dec-08 21:31N 26°41' W 079°50'1325.8
2017-Dec-08 21:00N 26°36' W 079°36'3310.9 200 / 121011.0 5.4 27.022.825.0
2017-Dec-08 18:00N 26°30' W 079°00'39 4.1 170 / 131012.5 5.4 27.024.325.0
2017-Dec-08 08:34N 26°41' W 079°42'112.1
2017-Dec-08 08:29N 26°41' W 079°43'611.7
2017-Dec-08 08:00N 26°42' W 079°49'1189.1
2017-Dec-08 08:00N 26°42' W 079°48'714.3 140 / 121013.0 5.4 25.022.224.0
2017-Dec-08 07:30N 26°44' W 079°55'5 9.9
2017-Dec-08 07:00N 26°46' W 080°01'2 4.7
2017-Dec-08 06:30N 26°46' W 080°03'0 0.0
2017-Dec-08 05:58N 26°46' W 080°03'0 0.0
2017-Dec-08 05:28N 26°46' W 080°03'0 0.0
2017-Dec-08 04:58N 26°46' W 080°03'0 0.0
2017-Dec-08 04:28N 26°46' W 080°03'0 0.0
2017-Dec-08 03:58N 26°46' W 080°03'0 0.0
2017-Dec-08 03:28N 26°46' W 080°03'0 0.0
2017-Dec-08 02:58N 26°46' W 080°03'0 0.0
2017-Dec-08 02:28N 26°46' W 080°03'0 0.0
2017-Dec-08 01:58N 26°46' W 080°03'0 0.0
2017-Dec-08 01:25N 26°46' W 080°03'0 0.0
2017-Dec-08 00:58N 26°46' W 080°03'0 0.0
2017-Dec-08 00:28N 26°46' W 080°03'0 0.0
2017-Dec-07 23:52N 26°46' W 080°03'0 0.0
2017-Dec-07 23:28N 26°46' W 080°03'0 0.0
2017-Dec-07 22:55N 26°46' W 080°03'0 0.0
2017-Dec-07 22:28N 26°46' W 080°03'0 0.1
2017-Dec-07 22:00N 26°46' W 080°03'4 7.5
2017-Dec-07 21:30N 26°45' W 079°59'2314.9
2017-Dec-07 20:00N 26°36' W 079°36'1616.1 170 / 91014.510.8 26.023.224.0
2017-Dec-07 19:00N 26°36' W 079°18'1110.7 140 / 61016.010.8 26.021.824.0
2017-Dec-07 18:00N 26°36' W 079°06'1212.3 140 / 81016.010.8 26.021.824.0
2017-Dec-07 17:00N 26°30' W 078°54'5 0.8 130 / 81016.010.8 26.021.824.0
2017-Dec-07 10:00N 26°30' W 079°00'2713.7 130 / 151016.5 5.4 24.021.127.0
2017-Dec-07 08:00N 26°36' W 079°30'1313.6 140 / 91017.010.8 24.021.124.0
2017-Dec-07 07:01N 26°41' W 079°44'5184.6
2017-Dec-07 07:00N 26°36' W 079°42'825.4 130 / 91017.0 5.4 24.021.124.0
2017-Dec-07 06:40N 26°42' W 079°48'211.6
2017-Dec-07 06:29N 26°43' W 079°50'611.5
2017-Dec-07 06:00N 26°44' W 079°56'510.7
2017-Dec-07 05:30N 26°46' W 080°02'1 2.3
2017-Dec-07 05:00N 26°46' W 080°03'0 0.0
2017-Dec-07 04:28N 26°46' W 080°03'0 0.0
2017-Dec-07 03:58N 26°46' W 080°03'0 0.0
2017-Dec-07 03:28N 26°46' W 080°03'0 0.0
2017-Dec-07 03:01N 26°46' W 080°03'0 0.0
2017-Dec-07 02:30N 26°46' W 080°03'0 0.0
2017-Dec-07 02:00N 26°46' W 080°03'0 0.0
2017-Dec-07 01:30N 26°46' W 080°03'0 0.0
2017-Dec-07 01:00N 26°46' W 080°03'0 0.0
2017-Dec-07 00:30N 26°46' W 080°03'0 0.0
2017-Dec-07 00:00N 26°46' W 080°03'0 0.0
2017-Dec-06 23:30N 26°46' W 080°03'0 0.0
2017-Dec-06 23:00N 26°46' W 080°03'0 0.0
2017-Dec-06 22:30N 26°46' W 080°03'2 3.4
2017-Dec-06 22:00N 26°46' W 080°01'510.5
2017-Dec-06 21:30N 26°44' W 079°56'713.4
2017-Dec-06 21:01N 26°41' W 079°49'1817.5
2017-Dec-06 20:00N 26°36' W 079°30'1212.3 170 / 111017.510.8 25.020.724.0
2017-Dec-06 19:00N 26°30' W 079°18'1110.7 170 / 111018.510.8 26.018.724.0
2017-Dec-06 18:00N 26°30' W 079°06'0 0.0 160 / 111018.510.8 26.021.824.0
2017-Dec-06 11:00N 26°30' W 079°06'1212.3 110 / 171019.0 5.4 24.019.627.0
2017-Dec-06 10:00N 26°36' W 079°18'2211.1 110 / 171019.0 5.4 24.019.627.0
2017-Dec-06 08:00N 26°42' W 079°42'16 1.3 120 / 101019.0 5.4 24.019.624.0
2017-Dec-05 20:00N 26°30' W 079°30'1616.1 130 / 101020.510.8 26.021.824.0
2017-Dec-05 19:00N 26°30' W 079°12'1212.3 130 / 111021.010.8 26.021.824.0
2017-Dec-05 18:00N 26°24' W 079°00'13 1.6 120 / 121021.010.8 26.021.824.0
2017-Dec-05 10:00N 26°36' W 079°06'2110.7 090 / 181021.0 5.4 24.019.627.0
2017-Dec-05 08:00N 26°36' W 079°30'1212.3 100 / 121020.510.8 24.019.624.0
2017-Dec-05 07:00N 26°42' W 079°42'19 0.9 100 / 121020.510.8 24.019.624.0
2017-Dec-04 10:24N 26°46' W 080°03'0 0.0
2017-Dec-04 10:00N 26°46' W 080°03'0 0.0
2017-Dec-04 09:30N 26°46' W 080°03'0 0.0
2017-Dec-04 08:57N 26°46' W 080°03'0 0.0
2017-Dec-04 08:30N 26°46' W 080°03'0 0.0
2017-Dec-04 08:00N 26°46' W 080°03'0 0.0
2017-Dec-04 07:30N 26°46' W 080°03'0 0.0
2017-Dec-04 07:00N 26°46' W 080°03'0 0.0
2017-Dec-04 06:30N 26°46' W 080°03'0 0.0
2017-Dec-04 06:00N 26°46' W 080°03'0 0.0
2017-Dec-04 05:30N 26°46' W 080°03'0 0.0
2017-Dec-04 05:00N 26°46' W 080°03'0 0.0
2017-Dec-04 04:30N 26°46' W 080°03'0 0.0
2017-Dec-04 04:00N 26°46' W 080°03'0 0.0
2017-Dec-04 03:30N 26°46' W 080°03'0 0.0
2017-Dec-04 03:00N 26°46' W 080°03'0 0.0
2017-Dec-04 02:29N 26°46' W 080°03'0 0.0
2017-Dec-04 01:59N 26°46' W 080°03'0 0.0
2017-Dec-04 01:29N 26°46' W 080°03'0 0.0
2017-Dec-04 00:59N 26°46' W 080°03'0 0.0
2017-Dec-04 00:29N 26°46' W 080°03'0 0.0
2017-Dec-03 13:47N 26°46' W 080°03'0 0.0
2017-Dec-03 13:29N 26°46' W 080°03'0 0.0
2017-Dec-03 12:59N 26°46' W 080°03'0 0.0
2017-Dec-03 12:29N 26°46' W 080°03'0 0.0
2017-Dec-03 11:59N 26°46' W 080°03'0 0.0
2017-Dec-03 11:26N 26°46' W 080°03'0 0.0
2017-Dec-03 10:59N 26°46' W 080°03'0 0.0
2017-Dec-03 10:29N 26°46' W 080°03'0 0.0
2017-Dec-03 09:59N 26°46' W 080°03'0 0.0
2017-Dec-03 09:29N 26°46' W 080°03'0 0.0
2017-Dec-03 08:59N 26°46' W 080°03'0 0.0
2017-Dec-03 08:29N 26°46' W 080°03'0 0.0
2017-Dec-03 07:59N 26°46' W 080°03'0 0.0
2017-Dec-03 07:29N 26°46' W 080°03'0 0.0
2017-Dec-03 06:59N 26°46' W 080°03'0 0.0
2017-Dec-03 06:29N 26°46' W 080°03'0 0.0
2017-Dec-03 05:59N 26°46' W 080°03'0 0.0
2017-Dec-03 05:29N 26°46' W 080°03'0 0.0
2017-Dec-03 04:59N 26°46' W 080°03'0 0.0
2017-Dec-03 04:29N 26°46' W 080°03'0 0.0
2017-Dec-03 03:59N 26°46' W 080°03'0 0.0
2017-Dec-02 22:16N 26°46' W 080°03'1 3.7
2017-Dec-02 22:00N 26°46' W 080°02'510.9
2017-Dec-02 21:30N 26°47' W 079°56'714.0
2017-Dec-02 21:01N 26°44' W 079°49'1918.3
2017-Dec-02 20:00N 26°36' W 079°30'1110.7 060 / 111019.010.8 24.018.024.0
2017-Dec-02 19:00N 26°36' W 079°18'1717.2 050 / 121019.010.8 24.018.024.0
2017-Dec-02 18:00N 26°30' W 079°00'0 0.0 050 / 121019.010.8 24.018.024.0
2017-Dec-02 10:00N 26°30' W 079°00'2713.7 040 / 151018.0 5.4 22.019.027.0
2017-Dec-02 08:00N 26°36' W 079°30'1212.3 050 / 101018.510.8 24.018.024.0
2017-Dec-02 07:00N 26°42' W 079°42'518.0 050 / 111018.5 5.4 24.018.024.0
2017-Dec-02 06:42N 26°44' W 079°47'211.4
2017-Dec-02 06:30N 26°44' W 079°50'611.3
2017-Dec-02 06:00N 26°46' W 079°56'510.7
2017-Dec-02 05:30N 26°46' W 080°02'1 2.1
2017-Dec-02 05:00N 26°46' W 080°03'0 0.0
2017-Dec-02 04:30N 26°46' W 080°03'0 0.0
2017-Dec-02 04:00N 26°46' W 080°03'0 0.0
2017-Dec-02 03:30N 26°46' W 080°03'0 0.0
2017-Dec-02 03:00N 26°46' W 080°03'0 0.0
2017-Dec-02 02:30N 26°46' W 080°03'0 0.0
2017-Dec-02 02:00N 26°46' W 080°03'0 0.0
2017-Dec-02 01:30N 26°46' W 080°03'0 0.0
2017-Dec-02 00:57N 26°46' W 080°03'0 0.0
2017-Dec-02 00:30N 26°46' W 080°03'0 0.0
2017-Dec-02 00:00N 26°46' W 080°03'0 0.0
2017-Dec-01 23:30N 26°46' W 080°03'0 0.0
2017-Dec-01 23:00N 26°46' W 080°03'0 0.3
2017-Dec-01 22:30N 26°46' W 080°03'1 2.0
2017-Dec-01 22:00N 26°46' W 080°02'4 8.7
2017-Dec-01 21:30N 26°47' W 079°57'1912.7
2017-Dec-01 20:00N 26°42' W 079°36'1616.1 050 / 131017.010.8 24.019.624.0
2017-Dec-01 19:00N 26°42' W 079°18'16 2.0 050 / 121018.010.8 24.019.624.0
2017-Dec-01 11:00N 26°30' W 079°06'1212.3 040 / 151016.5 5.4 23.020.128.0
2017-Dec-01 10:00N 26°36' W 079°18'   040 / 151016.5 5.4 23.020.128.0

Dump ship's entire track history